Time;durP1;ratioP1;P1;durP2;ratioP2;P2;SDS_P1;SDS_P2;PMS_P1;PMS_P2;Temp;Humidity;BMP_temperature;BMP_pressure;BME280_temperature;BME280_humidity;BME280_pressure;Samples;Min_cycle;Max_cycle;Signal;HPM_P1;HPM_P2
2021/01/18 06:08:10;;;;;;;23.07;5.33;;;19.20;46.30;;;;;;4241543;27;20381;-71
2021/01/18 06:10:34;;;;;;;18.85;5.00;;;19.10;48.80;;;;;;4213832;28;20147;-69
2021/01/18 06:12:55;;;;;;;26.67;5.07;;;19.20;48.80;;;;;;4210662;28;20059;-65
2021/01/18 06:15:19;;;;;;;20.73;5.63;;;19.30;48.70;;;;;;4209939;28;20117;-65
2021/01/18 06:17:44;;;;;;;22.00;4.55;;;19.30;48.50;;;;;;4209412;28;20056;-65
2021/01/18 06:20:08;;;;;;;16.42;4.20;;;19.30;48.40;;;;;;4209235;28;20063;-65
2021/01/18 06:22:31;;;;;;;15.55;4.97;;;19.40;48.50;;;;;;4209473;28;20061;-65
2021/01/18 06:24:56;;;;;;;20.10;5.50;;;19.40;48.50;;;;;;4210393;28;20094;-65
2021/01/18 06:27:31;;;;;;;13.45;4.63;;;19.40;48.20;;;;;;4210148;28;20109;-75
2021/01/18 06:29:51;;;;;;;13.25;4.10;;;19.40;48.20;;;;;;4225000;28;20055;-68
2021/01/18 06:32:15;;;;;;;13.25;4.38;;;19.50;47.80;;;;;;4220813;28;20101;-65
2021/01/18 06:34:35;;;;;;;9.38;3.50;;;19.50;47.60;;;;;;4209210;28;20094;-65
2021/01/18 06:36:57;;;;;;;8.57;3.75;;;19.50;48.20;;;;;;4208821;28;20071;-66
2021/01/18 06:39:17;;;;;;;9.10;3.38;;;19.50;47.70;;;;;;4193196;28;20776;-66
2021/01/18 06:41:38;;;;;;;11.40;3.90;;;19.60;47.90;;;;;;4192100;28;20075;-66
2021/01/18 06:44:03;;;;;;;13.35;3.72;;;19.60;47.80;;;;;;4191906;28;20127;-66
2021/01/18 06:46:29;;;;;;;13.02;4.10;;;19.60;47.60;;;;;;4192749;28;20161;-66
2021/01/18 06:48:53;;;;;;;10.77;3.35;;;19.60;47.50;;;;;;4192637;28;20052;-66
2021/01/18 06:51:19;;;;;;;15.52;4.40;;;19.60;47.30;;;;;;4201482;28;20097;-80
2021/01/18 06:53:43;;;;;;;16.38;4.15;;;19.60;47.00;;;;;;4206743;28;20048;-66
2021/01/18 06:57:02;;;;;;;5.05;2.42;;;19.60;47.00;;;;;;4203472;28;20114;-68
2021/01/18 06:59:51;;;;;;;9.70;3.08;;;19.60;41.10;;;;;;4207125;28;20059;-71
2021/01/18 07:02:37;;;;;;;8.23;2.85;;;19.40;39.00;;;;;;4207841;28;20137;-78
2021/01/18 07:05:10;;;;;;;8.93;2.42;;;19.30;38.10;;;;;;4221031;28;20089;-64
2021/01/18 07:07:34;;;;;;;8.17;2.13;;;19.20;38.80;;;;;;4207142;28;20069;-65
2021/01/18 07:10:00;;;;;;;7.70;1.92;;;19.10;39.60;;;;;;4196785;28;20051;-65
2021/01/18 07:12:25;;;;;;;6.25;1.80;;;19.20;40.20;;;;;;4207429;28;20458;-67
2021/01/18 07:14:57;;;;;;;10.27;2.03;;;19.10;40.60;;;;;;4222233;28;20051;-61
2021/01/18 07:17:19;;;;;;;8.68;2.15;;;19.10;41.40;;;;;;4208427;28;20133;-70
2021/01/18 07:19:47;;;;;;;4.60;1.67;;;19.10;41.90;;;;;;4195947;28;20178;-67
2021/01/18 07:22:23;;;;;;;5.47;1.48;;;19.20;42.00;;;;;;4210325;28;20138;-69
2021/01/18 07:24:52;;;;;;;8.35;1.52;;;19.20;42.10;;;;;;4197353;28;20078;-68
2021/01/18 07:27:20;;;;;;;;;;;19.20;42.20;;;;;;4197865;28;20430;-70
2021/01/18 07:29:41;;;;;;;6.85;1.52;;;19.20;42.10;;;;;;4195623;28;19930;-67
2021/01/18 07:32:01;;;;;;;4.53;1.55;;;19.20;42.30;;;;;;4197462;28;20518;-68
2021/01/18 07:34:27;;;;;;;2.80;1.00;;;19.20;42.40;;;;;;4210761;28;20059;-68
2021/01/18 07:36:48;;;;;;;6.30;1.17;;;19.20;42.60;;;;;;4196560;28;20109;-71
2021/01/18 07:39:31;;;;;;;4.53;1.20;;;19.30;42.70;;;;;;4197125;28;20051;-67
2021/01/18 07:41:54;;;;;;;3.75;0.90;;;19.30;42.80;;;;;;4197192;28;20060;-66
2021/01/18 07:44:45;;;;;;;8.20;0.98;;;19.30;42.90;;;;;;4197082;28;20059;-69
2021/01/18 07:47:07;;;;;;;4.18;1.08;;;19.30;42.90;;;;;;4196026;28;20106;-72
2021/01/18 07:49:38;;;;;;;2.20;1.00;;;19.30;43.00;;;;;;4193230;28;20150;-69
2021/01/18 07:52:18;;;;;;;4.57;1.00;;;19.30;43.00;;;;;;4196147;28;20060;-65
2021/01/18 07:54:38;;;;;;;4.32;1.25;;;19.30;43.10;;;;;;4196185;28;20560;-65
2021/01/18 07:57:31;;;;;;;3.88;1.15;;;19.30;43.10;;;;;;4191423;28;20066;-68
2021/01/18 08:00:33;;;;;;;2.83;1.15;;;19.30;43.30;;;;;;4197002;28;20122;-65
2021/01/18 08:03:21;;;;;;;5.25;1.33;;;19.30;43.30;;;;;;4196171;28;20093;-67
2021/01/18 08:05:44;;;;;;;5.90;1.50;;;19.30;43.40;;;;;;4180225;28;20538;-64
2021/01/18 08:08:10;;;;;;;2.38;1.00;;;19.30;43.60;;;;;;4179907;28;20059;-74
2021/01/18 08:11:16;;;;;;;4.70;1.23;;;19.30;43.50;;;;;;4179708;28;20064;-65
2021/01/18 08:13:54;;;;;;;3.80;1.20;;;19.30;43.40;;;;;;4180946;28;20510;-65
2021/01/18 08:16:26;;;;;;;2.88;0.90;;;19.30;44.20;;;;;;4181122;28;20139;-71
2021/01/18 08:18:59;;;;;;;5.07;1.40;;;19.30;44.50;;;;;;4194272;28;20090;-69
2021/01/18 08:22:04;;;;;;;5.18;1.35;;;19.30;44.70;;;;;;4197387;28;20143;-75
2021/01/18 08:24:58;;;;;;;4.18;1.27;;;19.30;44.50;;;;;;4161410;28;20060;-69
2021/01/18 08:27:46;;;;;;;3.30;1.00;;;19.40;44.80;;;;;;4180370;28;20415;-67
2021/01/18 08:30:37;;;;;;;3.38;1.25;;;19.40;44.90;;;;;;4178875;28;20091;-70
2021/01/18 08:33:07;;;;;;;2.78;1.10;;;19.40;44.90;;;;;;4186108;28;20059;-65
2021/01/18 08:35:45;;;;;;;3.33;1.50;;;19.40;45.40;;;;;;4194853;28;20055;-67
2021/01/18 08:38:08;;;;;;;7.70;1.00;;;19.50;45.40;;;;;;4194314;28;20095;-67
2021/01/18 08:40:44;;;;;;;5.25;1.20;;;19.50;45.60;;;;;;4195000;28;20059;-66
2021/01/18 08:43:08;;;;;;;3.75;1.05;;;19.60;45.70;;;;;;4194669;28;20525;-66
2021/01/18 08:45:36;;;;;;;3.35;1.02;;;19.60;45.70;;;;;;4195162;28;20055;-67
2021/01/18 08:48:02;;;;;;;5.57;1.73;;;19.60;45.70;;;;;;4219008;28;20510;-65
2021/01/18 08:50:28;;;;;;;3.00;1.05;;;19.70;45.80;;;;;;4194156;28;20064;-65
2021/01/18 08:52:53;;;;;;;3.08;1.00;;;19.70;45.80;;;;;;4194253;28;20056;-66
2021/01/18 08:55:51;;;;;;;4.15;1.08;;;19.70;45.80;;;;;;4194202;28;20138;-63
2021/01/18 08:58:14;;;;;;;4.55;1.52;;;19.80;45.70;;;;;;4206880;28;20066;-69
2021/01/18 09:00:44;;;;;;;2.60;0.95;;;19.80;46.00;;;;;;4196713;28;20059;-66
2021/01/18 09:03:05;;;;;;;3.20;0.98;;;19.80;45.90;;;;;;4196436;28;20099;-65
2021/01/18 09:05:26;;;;;;;1.95;0.80;;;19.90;46.60;;;;;;4209839;28;20125;-70
2021/01/18 09:07:48;;;;;;;2.58;1.20;;;19.90;46.10;;;;;;4195207;28;20098;-65
2021/01/18 09:10:14;;;;;;;2.72;1.00;;;19.90;46.10;;;;;;4201996;28;20071;-67
2021/01/18 09:12:35;;;;;;;2.00;1.00;;;20.00;46.20;;;;;;4196378;28;20580;-63
2021/01/18 09:15:06;;;;;;;3.23;1.17;;;20.00;46.20;;;;;;4194925;28;20103;-71
2021/01/18 09:17:27;;;;;;;;;;;20.10;46.20;;;;;;4195816;28;20499;-65
2021/01/18 09:19:54;;;;;;;5.93;1.15;;;20.10;46.10;;;;;;4209965;28;19931;-65
2021/01/18 09:22:19;;;;;;;5.00;1.00;;;20.10;46.30;;;;;;4196175;28;20518;-69
2021/01/18 09:24:44;;;;;;;3.45;0.95;;;20.20;46.40;;;;;;4195313;28;20135;-68
2021/01/18 09:27:05;;;;;;;3.15;1.05;;;20.20;46.40;;;;;;4196500;28;20529;-67
2021/01/18 09:29:25;;;;;;;;;;;20.20;46.40;;;;;;4210068;28;20055;-69
2021/01/18 09:31:46;;;;;;;4.10;1.30;;;20.20;46.10;;;;;;4196009;28;19931;-66
2021/01/18 09:34:12;;;;;;;2.67;0.95;;;20.30;46.40;;;;;;4196518;28;20162;-67
2021/01/18 09:36:40;;;;;;;4.85;1.15;;;20.30;46.30;;;;;;4195344;28;20063;-68
2021/01/18 09:39:05;;;;;;;2.15;0.77;;;20.30;46.30;;;;;;4207796;28;20118;-64
2021/01/18 09:41:28;;;;;;;3.22;0.80;;;20.30;46.20;;;;;;4193212;28;20059;-65
2021/01/18 09:43:53;;;;;;;3.80;0.73;;;20.40;46.20;;;;;;4194883;28;20128;-66
2021/01/18 09:46:16;;;;;;;2.83;1.30;;;20.40;46.20;;;;;;4195059;28;20127;-66
2021/01/18 09:48:37;;;;;;;2.17;0.80;;;20.40;46.10;;;;;;4206166;28;20266;-66
2021/01/18 09:50:59;;;;;;;;;;;20.40;46.10;;;;;;4193650;28;20650;-68
2021/01/18 09:53:22;;;;;;;3.42;1.00;;;20.40;46.00;;;;;;4191912;28;20451;-69
2021/01/18 09:55:47;;;;;;;2.88;1.13;;;20.40;46.00;;;;;;4193766;28;20509;-69
2021/01/18 09:58:15;;;;;;;1.33;0.70;;;20.40;46.00;;;;;;4205779;28;20054;-70
2021/01/18 10:00:38;;;;;;;2.65;1.05;;;20.40;45.90;;;;;;4194519;28;20500;-68
2021/01/18 10:03:02;;;;;;;2.70;0.90;;;20.50;45.90;;;;;;4195520;28;20093;-66
2021/01/18 10:05:30;;;;;;;;;;;20.50;45.90;;;;;;4193925;28;20530;-68
2021/01/18 10:07:53;;;;;;;3.55;0.93;;;20.50;45.80;;;;;;4193895;28;19930;-67
2021/01/18 10:10:14;;;;;;;5.20;1.08;;;20.50;45.80;;;;;;4194764;28;20434;-70
2021/01/18 10:12:38;;;;;;;4.18;1.25;;;20.50;45.80;;;;;;4195223;28;20089;-69
2021/01/18 10:15:05;;;;;;;5.53;1.33;;;20.50;45.80;;;;;;4195998;28;20114;-70
2021/01/18 10:17:31;;;;;;;3.40;1.10;;;20.50;45.60;;;;;;4195808;28;20110;-70
2021/01/18 10:20:05;;;;;;;2.08;0.90;;;20.50;45.50;;;;;;4194762;28;20131;-69
2021/01/18 10:22:25;;;;;;;3.00;0.85;;;20.60;46.00;;;;;;4194808;28;20099;-66
2021/01/18 10:24:55;;;;;;;1.85;0.95;;;20.60;45.30;;;;;;4208640;28;20059;-69
2021/01/18 10:27:25;;;;;;;1.88;0.80;;;20.60;45.30;;;;;;4195454;28;20091;-68
2021/01/18 10:29:48;;;;;;;1.50;0.80;;;20.60;45.30;;;;;;4195490;28;20059;-67
2021/01/18 10:32:08;;;;;;;3.07;0.90;;;20.60;45.30;;;;;;4195528;28;20135;-69
2021/01/18 10:34:31;;;;;;;1.58;0.70;;;20.70;45.40;;;;;;4208015;28;20269;-69
2021/01/18 10:36:53;;;;;;;2.67;0.98;;;20.60;45.30;;;;;;4195633;28;20055;-66
2021/01/18 10:39:32;;;;;;;3.55;1.42;;;20.70;45.40;;;;;;4191661;28;20059;-63
2021/01/18 10:42:01;;;;;;;4.00;1.60;;;20.70;45.30;;;;;;4194463;28;20105;-63
2021/01/18 10:44:25;;;;;;;3.13;1.10;;;20.70;45.20;;;;;;4194604;28;20062;-63
2021/01/18 10:46:50;;;;;;;3.70;1.35;;;20.70;45.20;;;;;;4194437;28;20059;-66
2021/01/18 10:49:22;;;;;;;3.03;1.15;;;20.70;45.20;;;;;;4193539;28;20106;-65
2021/01/18 10:52:02;;;;;;;3.30;1.13;;;20.80;45.20;;;;;;4191610;28;20191;-63
2021/01/18 10:54:25;;;;;;;4.88;1.52;;;20.80;45.30;;;;;;4193712;28;20114;-66
2021/01/18 10:56:49;;;;;;;3.97;1.20;;;20.80;45.80;;;;;;4197837;28;20051;-65
2021/01/18 10:59:13;;;;;;;2.03;1.10;;;20.80;45.30;;;;;;4196812;28;20218;-66
2021/01/18 11:01:34;;;;;;;3.45;1.20;;;20.90;45.30;;;;;;4197128;28;20071;-66
2021/01/18 11:04:05;;;;;;;2.92;1.25;;;20.80;45.20;;;;;;4197739;28;20094;-68
2021/01/18 11:06:25;;;;;;;2.72;0.90;;;20.90;45.20;;;;;;4194348;28;20113;-65
2021/01/18 11:08:52;;;;;;;3.05;1.02;;;20.90;45.20;;;;;;4194998;28;20058;-64
2021/01/18 11:11:20;;;;;;;2.65;0.82;;;20.90;45.10;;;;;;4210796;28;20126;-63
2021/01/18 11:13:44;;;;;;;3.58;1.20;;;21.00;45.20;;;;;;4210058;28;20488;-65
2021/01/18 11:16:12;;;;;;;4.50;1.17;;;20.90;45.20;;;;;;4210541;28;20062;-64
2021/01/18 11:18:33;;;;;;;2.88;1.23;;;20.90;45.20;;;;;;4196491;28;20064;-65
2021/01/18 11:20:57;;;;;;;3.17;1.00;;;21.00;45.20;;;;;;4211312;28;20132;-63
2021/01/18 11:23:20;;;;;;;3.55;1.17;;;21.00;45.20;;;;;;4198178;28;20067;-60
2021/01/18 11:25:43;;;;;;;5.22;1.25;;;21.00;45.20;;;;;;4210246;28;20162;-63
2021/01/18 11:28:09;;;;;;;2.58;1.05;;;21.00;45.20;;;;;;4196554;28;20628;-65
2021/01/18 11:30:32;;;;;;;2.22;0.95;;;21.00;45.20;;;;;;4194451;28;20051;-65
2021/01/18 11:32:55;;;;;;;1.48;1.08;;;21.00;45.10;;;;;;4195304;28;20063;-68
2021/01/18 11:35:16;;;;;;;6.32;1.35;;;21.00;45.10;;;;;;4210903;28;20058;-62
2021/01/18 11:37:40;;;;;;;5.72;1.00;;;21.00;45.20;;;;;;4197896;28;20063;-61
2021/01/18 11:40:06;;;;;;;2.80;1.48;;;21.00;45.10;;;;;;4197766;28;20165;-64
2021/01/18 11:42:27;;;;;;;4.35;1.20;;;21.10;45.20;;;;;;4197825;28;20102;-64
2021/01/18 11:44:47;;;;;;;2.97;1.37;;;21.10;45.10;;;;;;4210564;28;20138;-65
2021/01/18 11:47:10;;;;;;;2.08;1.00;;;21.10;45.10;;;;;;4196772;28;20786;-67
2021/01/18 11:49:32;;;;;;;2.53;1.13;;;21.10;45.10;;;;;;4194498;28;20060;-68
2021/01/18 11:51:54;;;;;;;2.70;0.90;;;21.10;45.10;;;;;;4209301;28;20051;-64
2021/01/18 11:54:23;;;;;;;4.65;1.25;;;21.10;45.10;;;;;;4194584;28;20051;-64
2021/01/18 11:56:45;;;;;;;1.40;0.85;;;21.10;45.10;;;;;;4194995;28;20122;-65
2021/01/18 11:59:06;;;;;;;1.40;0.93;;;21.10;45.10;;;;;;4196727;28;20087;-65
2021/01/18 12:01:26;;;;;;;1.55;0.98;;;21.10;45.10;;;;;;4195640;28;20051;-69
2021/01/18 12:03:47;;;;;;;4.40;1.08;;;21.10;45.10;;;;;;4195733;28;20166;-67
2021/01/18 12:06:10;;;;;;;3.13;1.35;;;21.10;45.10;;;;;;4196663;28;20063;-69
2021/01/18 12:08:31;;;;;;;3.33;1.38;;;21.10;45.10;;;;;;4209385;28;20059;-68
2021/01/18 12:10:52;;;;;;;5.32;0.98;;;21.20;45.20;;;;;;4209426;28;20442;-68
2021/01/18 12:13:14;;;;;;;3.97;1.10;;;21.20;45.20;;;;;;4209969;28;20124;-71
2021/01/18 12:15:35;;;;;;;3.15;1.00;;;21.20;45.20;;;;;;4196108;28;20461;-71
2021/01/18 12:17:56;;;;;;;2.78;1.52;;;21.20;45.10;;;;;;4196835;28;20457;-71
2021/01/18 12:20:18;;;;;;;2.72;1.35;;;21.20;45.00;;;;;;4196877;28;20059;-71
2021/01/18 12:22:39;;;;;;;4.38;1.67;;;21.20;44.90;;;;;;4191963;28;20498;-71
2021/01/18 12:25:04;;;;;;;4.78;1.55;;;21.20;44.80;;;;;;4208057;28;20050;-72
2021/01/18 12:27:25;;;;;;;2.38;1.00;;;21.20;44.70;;;;;;4196619;28;20136;-72
2021/01/18 12:29:46;;;;;;;2.67;1.38;;;21.20;44.60;;;;;;4208720;28;20063;-72
2021/01/18 12:32:06;;;;;;;3.55;1.88;;;21.20;44.50;;;;;;4207629;28;20105;-72
2021/01/18 12:34:29;;;;;;;2.97;1.73;;;21.20;44.40;;;;;;4180603;28;20569;-69
2021/01/18 12:36:56;;;;;;;4.38;1.75;;;21.20;44.30;;;;;;4187592;28;20063;-69
2021/01/18 12:39:16;;;;;;;3.95;1.83;;;21.20;44.20;;;;;;4197100;28;20060;-69
2021/01/18 12:41:38;;;;;;;2.40;1.77;;;21.20;44.20;;;;;;4195893;28;20059;-69
2021/01/18 12:44:01;;;;;;;5.07;2.53;;;21.30;44.10;;;;;;4210447;28;20324;-69
2021/01/18 12:46:24;;;;;;;3.47;2.03;;;21.20;44.00;;;;;;4196922;28;20136;-69
2021/01/18 12:48:47;;;;;;;4.90;2.70;;;21.20;44.00;;;;;;4207305;28;20074;-69
2021/01/18 12:51:07;;;;;;;5.32;2.13;;;21.20;43.90;;;;;;4193204;28;20608;-69
2021/01/18 12:53:43;;;;;;;5.00;2.30;;;21.20;43.90;;;;;;4194905;28;20561;-69
2021/01/18 12:56:05;;;;;;;4.20;2.13;;;21.30;43.80;;;;;;4193936;28;20533;-68
2021/01/18 12:58:27;;;;;;;4.80;2.55;;;21.30;43.80;;;;;;4193347;28;20137;-69
2021/01/18 13:00:48;;;;;;;4.25;2.47;;;21.20;43.70;;;;;;4193010;28;20059;-68
2021/01/18 13:03:11;;;;;;;6.07;2.60;;;21.30;43.70;;;;;;4194416;28;20063;-73
2021/01/18 13:05:34;;;;;;;5.20;2.95;;;21.20;43.60;;;;;;4208891;28;20062;-79
2021/01/18 13:07:54;;;;;;;3.60;2.50;;;21.20;43.60;;;;;;4195555;28;20109;-69
2021/01/18 13:10:15;;;;;;;7.63;3.30;;;21.20;43.70;;;;;;4194029;28;20286;-67
2021/01/18 13:12:37;;;;;;;4.72;2.30;;;21.20;43.70;;;;;;4193295;28;20046;-71
2021/01/18 13:14:59;;;;;;;5.43;2.47;;;21.30;43.80;;;;;;4195634;28;20518;-63
2021/01/18 13:17:22;;;;;;;6.15;2.88;;;21.20;43.70;;;;;;4220299;28;20143;-63
2021/01/18 13:19:42;;;;;;;5.65;2.30;;;21.30;44.40;;;;;;4194367;28;20087;-69
2021/01/18 13:22:03;;;;;;;5.78;2.42;;;21.30;43.80;;;;;;4196472;28;20075;-66
2021/01/18 13:24:23;;;;;;;5.50;3.07;;;21.30;43.90;;;;;;4196337;28;20071;-70
2021/01/18 13:26:46;;;;;;;5.40;2.58;;;21.20;43.90;;;;;;4195372;28;20270;-68
2021/01/18 13:29:07;;;;;;;6.03;2.75;;;21.30;44.00;;;;;;4196475;28;20143;-68
2021/01/18 13:31:36;;;;;;;4.97;2.97;;;21.30;44.00;;;;;;4196106;28;20093;-68
2021/01/18 13:33:59;;;;;;;4.80;2.53;;;21.20;44.00;;;;;;4194732;28;20051;-67
2021/01/18 13:36:21;;;;;;;4.47;2.30;;;21.20;44.10;;;;;;4196098;28;20576;-68
2021/01/18 13:38:44;;;;;;;5.10;2.38;;;21.20;44.10;;;;;;4195726;28;20238;-65
2021/01/18 13:41:04;;;;;;;6.32;3.10;;;21.30;44.20;;;;;;4179629;28;20114;-66
2021/01/18 13:43:24;;;;;;;6.25;2.88;;;21.30;44.30;;;;;;4192746;28;20066;-66
2021/01/18 13:45:45;;;;;;;6.88;2.42;;;21.30;44.30;;;;;;4191956;28;20067;-63
2021/01/18 13:48:09;;;;;;;5.00;2.95;;;21.30;44.30;;;;;;4179536;28;20102;-66
2021/01/18 13:50:32;;;;;;;4.85;2.67;;;21.30;44.40;;;;;;4192783;28;20066;-65
2021/01/18 13:52:55;;;;;;;4.65;2.65;;;21.30;44.40;;;;;;4179223;28;20102;-64
2021/01/18 13:55:15;;;;;;;3.53;2.40;;;21.30;44.50;;;;;;4179210;28;20134;-67
2021/01/18 13:57:36;;;;;;;;;;;21.30;44.50;;;;;;4192328;28;20652;-65
2021/01/18 13:59:56;;;;;;;3.13;2.17;;;21.30;44.40;;;;;;4179136;28;19970;-66
2021/01/18 14:02:16;;;;;;;4.57;2.40;;;21.30;44.60;;;;;;4204090;28;20043;-63
2021/01/18 14:04:40;;;;;;;4.25;2.72;;;21.30;45.00;;;;;;4195332;28;20125;-63
2021/01/18 14:07:00;;;;;;;5.07;2.67;;;21.30;44.70;;;;;;4192254;28;20195;-64
2021/01/18 14:09:20;;;;;;;4.37;2.50;;;21.30;44.70;;;;;;4194489;28;20661;-67
2021/01/18 14:11:43;;;;;;;4.17;2.43;;;21.40;44.70;;;;;;4193875;28;20515;-66
2021/01/18 14:14:05;;;;;;;4.68;2.30;;;21.40;44.70;;;;;;4191795;28;20110;-69
2021/01/18 14:16:26;;;;;;;3.72;2.45;;;21.40;44.70;;;;;;4195213;28;20059;-65
2021/01/18 14:18:46;;;;;;;5.07;2.80;;;21.40;44.60;;;;;;4195321;28;20453;-70
2021/01/18 14:21:07;;;;;;;4.90;3.03;;;21.40;44.40;;;;;;4194867;28;20110;-71
2021/01/18 14:23:27;;;;;;;6.22;2.97;;;21.40;44.30;;;;;;4193198;28;20439;-67
2021/01/18 14:25:48;;;;;;;6.40;2.87;;;21.40;44.30;;;;;;4194156;28;20150;-75
2021/01/18 14:28:08;;;;;;;4.10;2.83;;;21.40;44.20;;;;;;4221881;28;20343;-68
2021/01/18 14:30:28;;;;;;;5.70;3.23;;;21.40;44.20;;;;;;4196281;28;20756;-69
2021/01/18 14:32:51;;;;;;;6.50;3.25;;;21.40;44.20;;;;;;4199175;28;20336;-67
2021/01/18 14:35:15;;;;;;;3.40;2.78;;;21.40;44.10;;;;;;4198783;28;20159;-65
2021/01/18 14:37:35;;;;;;;5.35;3.20;;;21.40;44.10;;;;;;4197460;28;20082;-68
2021/01/18 14:39:58;;;;;;;7.15;3.55;;;21.40;44.00;;;;;;4198122;28;20051;-66
2021/01/18 14:42:19;;;;;;;6.53;4.13;;;21.40;44.00;;;;;;4212344;28;20545;-70
2021/01/18 14:44:43;;;;;;;4.60;2.83;;;21.40;43.90;;;;;;4199197;28;20415;-69
2021/01/18 14:47:08;;;;;;;5.22;3.10;;;21.40;43.80;;;;;;4194973;28;20106;-67
2021/01/18 14:49:28;;;;;;;5.30;3.25;;;21.50;44.40;;;;;;4182229;28;20132;-70
2021/01/18 14:51:51;;;;;;;4.55;3.15;;;21.50;43.80;;;;;;4182508;28;20183;-76
2021/01/18 14:54:14;;;;;;;5.33;3.47;;;21.50;43.80;;;;;;4181531;28;20059;-71
2021/01/18 14:56:35;;;;;;;6.65;3.35;;;21.50;43.90;;;;;;4180622;28;20817;-70
2021/01/18 14:58:58;;;;;;;6.22;3.60;;;21.50;43.90;;;;;;4181859;28;20556;-74
2021/01/18 15:01:20;;;;;;;4.57;3.63;;;21.50;43.80;;;;;;4181172;28;20539;-73
2021/01/18 15:03:41;;;;;;;6.35;2.95;;;21.50;43.90;;;;;;4207494;28;20055;-67
2021/01/18 15:06:01;;;;;;;11.57;3.60;;;21.50;43.80;;;;;;4194832;28;20059;-68
2021/01/18 15:08:24;;;;;;;5.32;3.45;;;21.50;43.90;;;;;;4181767;28;20071;-70
2021/01/18 15:10:45;;;;;;;5.68;2.83;;;21.50;43.90;;;;;;4195720;28;20098;-72
2021/01/18 15:13:06;;;;;;;4.10;2.88;;;21.50;43.80;;;;;;4198664;28;20173;-67
2021/01/18 15:15:29;;;;;;;5.90;3.30;;;21.50;43.80;;;;;;4196653;28;20817;-69
2021/01/18 15:17:52;;;;;;;6.85;3.25;;;21.60;43.90;;;;;;4192341;28;20074;-64
2021/01/18 15:20:15;;;;;;;5.03;3.45;;;21.50;43.90;;;;;;4198048;28;20136;-63
2021/01/18 15:22:38;;;;;;;7.20;3.40;;;21.50;43.90;;;;;;4181643;28;20094;-66
2021/01/18 15:24:58;;;;;;;5.68;3.03;;;21.50;43.80;;;;;;4195448;28;20414;-72
2021/01/18 15:27:23;;;;;;;4.93;3.22;;;21.60;43.90;;;;;;4197759;28;20136;-76
2021/01/18 15:29:44;;;;;;;5.82;3.35;;;21.60;43.80;;;;;;4180084;28;20091;-75
2021/01/18 15:32:06;;;;;;;4.72;3.10;;;21.60;43.70;;;;;;4180781;28;20099;-74
2021/01/18 15:34:27;;;;;;;3.85;2.78;;;21.60;43.60;;;;;;4185506;28;20102;-74
2021/01/18 15:36:51;;;;;;;4.38;2.83;;;21.60;43.50;;;;;;4197172;28;20506;-75
2021/01/18 15:39:13;;;;;;;5.32;2.72;;;21.60;43.40;;;;;;4196053;28;20059;-74
2021/01/18 15:41:34;;;;;;;5.40;2.67;;;21.60;43.40;;;;;;4197102;28;20060;-75
2021/01/18 15:43:56;;;;;;;5.88;2.60;;;21.60;43.30;;;;;;4195362;28;20127;-70
2021/01/18 15:46:20;;;;;;;3.60;2.45;;;21.60;43.30;;;;;;4198388;28;20514;-70
2021/01/18 15:48:42;;;;;;;4.53;2.92;;;21.60;43.20;;;;;;4197980;28;20112;-67
2021/01/18 15:51:02;;;;;;;6.93;3.28;;;21.60;43.20;;;;;;4210166;28;20113;-70
2021/01/18 15:53:23;;;;;;;6.22;3.00;;;21.60;43.10;;;;;;4197021;28;20059;-70
2021/01/18 15:55:44;;;;;;;4.43;2.50;;;21.60;43.10;;;;;;4197282;28;20079;-70
2021/01/18 15:58:07;;;;;;;4.97;2.83;;;21.60;43.10;;;;;;4197293;28;20067;-70
2021/01/18 16:00:29;;;;;;;5.43;3.17;;;21.60;43.00;;;;;;4196808;28;20074;-70
2021/01/18 16:02:50;;;;;;;3.47;2.33;;;21.60;43.00;;;;;;4197348;28;20145;-70
2021/01/18 16:05:15;;;;;;;5.53;3.00;;;21.60;42.90;;;;;;4197370;28;20063;-70
2021/01/18 16:07:35;;;;;;;4.18;2.72;;;21.60;42.90;;;;;;4197281;28;20067;-70
2021/01/18 16:09:55;;;;;;;3.63;2.35;;;21.60;42.90;;;;;;4197015;28;20454;-70
2021/01/18 16:12:15;;;;;;;3.75;2.85;;;21.60;42.80;;;;;;4197309;28;20530;-71
2021/01/18 16:14:38;;;;;;;3.20;2.55;;;21.60;42.80;;;;;;4197157;28;20068;-70
2021/01/18 16:16:59;;;;;;;3.10;2.23;;;21.60;42.80;;;;;;4197259;28;20137;-70
2021/01/18 16:19:19;;;;;;;;;;;21.60;42.70;;;;;;4210684;28;20103;-70
2021/01/18 16:21:42;;;;;;;4.05;2.28;;;21.60;42.90;;;;;;4210325;28;19927;-70
2021/01/18 16:24:02;;;;;;;4.05;2.55;;;21.60;43.30;;;;;;4196398;28;20606;-70
2021/01/18 16:26:23;;;;;;;4.82;2.42;;;21.60;42.70;;;;;;4196137;28;20114;-70
2021/01/18 16:28:44;;;;;;;4.00;2.25;;;21.50;42.60;;;;;;4210326;28;20063;-70
2021/01/18 16:31:05;;;;;;;4.10;2.42;;;21.50;42.60;;;;;;4197134;28;20625;-70
2021/01/18 16:33:27;;;;;;;3.03;2.08;;;21.50;42.50;;;;;;4197004;28;20522;-70
2021/01/18 16:35:47;;;;;;;5.47;2.55;;;21.60;42.60;;;;;;4209204;28;20063;-70
2021/01/18 16:38:08;;;;;;;4.40;2.00;;;21.50;42.50;;;;;;4196671;28;20083;-69
2021/01/18 16:40:28;;;;;;;3.80;2.38;;;21.60;42.50;;;;;;4210034;28;20139;-69
2021/01/18 16:42:50;;;;;;;5.88;2.10;;;21.60;42.50;;;;;;4196717;28;20063;-70
2021/01/18 16:45:14;;;;;;;3.20;2.00;;;21.60;42.50;;;;;;4196197;28;20122;-69
2021/01/18 16:47:40;;;;;;;4.40;2.72;;;21.60;42.40;;;;;;4196946;28;20132;-70
2021/01/18 16:50:01;;;;;;;4.18;2.40;;;21.50;42.40;;;;;;4196418;28;20063;-69
2021/01/18 16:52:22;;;;;;;3.88;2.30;;;21.60;42.40;;;;;;4195532;28;20420;-70
2021/01/18 16:54:43;;;;;;;3.03;2.43;;;21.50;42.30;;;;;;4209716;28;20442;-70
2021/01/18 16:57:04;;;;;;;;;;;21.60;42.30;;;;;;4196744;28;20301;-70
2021/01/18 16:59:24;;;;;;;;;;;21.50;42.50;;;;;;4196151;28;20006;-70
2021/01/18 17:01:44;;;;;;;3.40;2.10;;;21.50;43.10;;;;;;4195748;28;19978;-70
2021/01/18 17:04:07;;;;;;;2.58;2.08;;;21.50;42.40;;;;;;4196334;28;20068;-70
2021/01/18 17:06:29;;;;;;;4.13;2.10;;;21.50;42.40;;;;;;4196036;28;20068;-70
2021/01/18 17:08:50;;;;;;;3.85;2.35;;;21.50;42.40;;;;;;4195461;28;20309;-70
2021/01/18 17:11:11;;;;;;;3.43;1.87;;;21.50;42.30;;;;;;4209360;28;20062;-70
2021/01/18 17:13:31;;;;;;;;;;;21.50;42.30;;;;;;4209287;28;20284;-70
2021/01/18 17:15:54;;;;;;;3.07;2.03;;;21.50;42.50;;;;;;4209249;28;19970;-70
2021/01/18 17:18:14;;;;;;;3.80;2.38;;;21.50;42.30;;;;;;4195854;28;20148;-70
2021/01/18 17:20:35;;;;;;;3.17;2.13;;;21.50;42.30;;;;;;4208634;28;20174;-70
2021/01/18 17:23:01;;;;;;;3.35;2.22;;;21.50;42.30;;;;;;4195924;28;20060;-70
2021/01/18 17:25:22;;;;;;;3.28;2.08;;;21.50;42.20;;;;;;4195873;28;20059;-70
2021/01/18 17:27:42;;;;;;;2.28;1.98;;;21.50;42.20;;;;;;4209018;28;20059;-70
2021/01/18 17:30:05;;;;;;;3.13;2.35;;;21.50;42.20;;;;;;4194295;28;20064;-70
2021/01/18 17:32:26;;;;;;;5.00;1.80;;;21.50;42.10;;;;;;4188662;28;20137;-71
2021/01/18 17:34:46;;;;;;;3.20;2.20;;;21.60;42.30;;;;;;4192848;28;20067;-69
2021/01/18 17:37:08;;;;;;;5.35;2.17;;;21.60;42.30;;;;;;4193707;28;20593;-70
2021/01/18 17:39:32;;;;;;;3.47;2.35;;;21.50;42.40;;;;;;4204680;28;20113;-70
2021/01/18 17:41:55;;;;;;;2.83;2.00;;;21.60;42.60;;;;;;4192209;28;20052;-71
2021/01/18 17:44:16;;;;;;;3.72;1.75;;;21.60;42.70;;;;;;4191075;28;20110;-73
2021/01/18 17:46:38;;;;;;;1.73;1.40;;;21.60;42.80;;;;;;4193582;28;20168;-68
2021/01/18 17:48:59;;;;;;;3.40;2.10;;;21.60;42.90;;;;;;4199366;28;20055;-73
2021/01/18 17:51:20;;;;;;;;;;;21.60;43.00;;;;;;4212695;28;20666;-67
2021/01/18 17:53:43;;;;;;;3.58;2.28;;;21.60;42.90;;;;;;4198853;28;20287;-69
2021/01/18 17:56:04;;;;;;;3.25;1.65;;;21.60;43.30;;;;;;4212075;28;20160;-70
2021/01/18 17:58:25;;;;;;;4.28;2.00;;;21.60;43.40;;;;;;4199132;28;20478;-69
2021/01/18 18:00:48;;;;;;;6.65;2.67;;;21.60;43.50;;;;;;4201098;28;20075;-71
2021/01/18 18:03:08;;;;;;;6.45;2.50;;;21.60;43.50;;;;;;4209955;28;20120;-72
2021/01/18 18:05:28;;;;;;;8.38;3.72;;;21.60;44.00;;;;;;4210122;28;20094;-71
2021/01/18 18:07:48;;;;;;;10.10;4.93;;;21.60;43.20;;;;;;4210512;28;20077;-72
2021/01/18 18:10:12;;;;;;;10.68;5.13;;;21.60;43.50;;;;;;4209699;28;20063;-71
2021/01/18 18:12:33;;;;;;;;;;;21.60;42.90;;;;;;4224480;28;20067;-71
2021/01/18 18:14:58;;;;;;;14.07;5.13;;;21.60;43.50;;;;;;4210283;28;20317;-71
2021/01/18 18:17:19;;;;;;;13.05;5.10;;;21.60;42.80;;;;;;4206439;28;20176;-72
2021/01/18 18:19:40;;;;;;;13.00;5.22;;;21.60;42.80;;;;;;4192036;28;20055;-70
2021/01/18 18:22:00;;;;;;;17.73;5.00;;;21.60;42.80;;;;;;4206734;28;20467;-68
2021/01/18 18:24:24;;;;;;;13.07;6.07;;;21.60;43.00;;;;;;4194546;28;20524;-68
2021/01/18 18:26:44;;;;;;;10.82;5.03;;;21.60;42.90;;;;;;4205446;28;20050;-67
2021/01/18 18:29:07;;;;;;;15.02;4.80;;;21.70;42.90;;;;;;4190707;28;20613;-69
2021/01/18 18:31:36;;;;;;;14.23;5.55;;;21.70;43.10;;;;;;4195030;28;20427;-82
2021/01/18 18:33:56;;;;;;;10.05;5.43;;;21.70;40.90;;;;;;4194063;28;20219;-80
2021/01/18 18:36:16;;;;;;;7.07;5.50;;;21.60;39.00;;;;;;4208952;28;20584;-80
2021/01/18 18:38:37;;;;;;;9.32;5.60;;;21.50;36.90;;;;;;4195561;28;20557;-78
2021/01/18 18:40:57;;;;;;;6.65;5.50;;;21.40;36.80;;;;;;4197261;28;20055;-80